UKV2716 EGLL-EDDH
Flight info
| Callsign | UKV2716 |
|---|---|
| Flight time | 1h 6m |
| Altitude | 35000 |
| Route | BPK6J BPK Q295 SOMVA DCT MAVAS DCT GASTU DCT OSTOR/N0398F230 T904 RIBSO RIBSO3S |
| Aircraft | A321/M-SDE3FGHIRWY/LB1 |
Departure
| Time | 2026-04-26 08:14 |
|---|---|
| Airport | London Heathrow Airport (EGLL) |
Arrival
| Time | 2026-04-26 09:21 |
|---|---|
| Airport | Hamburg Helmut Schmidt Airport (EDDH) |
| Time | Latitude | Longitude | Altitude | Speed | Heading |
|---|---|---|---|---|---|
| 2026-04-26 07:37 | 51.47342 | -0.46186 | 85 ft | 0 kts | 236° |
| 2026-04-26 07:57 | 51.47343 | -0.46185 | 89 ft | 2 kts | 236° |
| 2026-04-26 07:58 | 51.47356 | -0.46151 | 89 ft | 4 kts | 243° |
| 2026-04-26 07:58 | 51.47358 | -0.46146 | 88 ft | 4 kts | 244° |
| 2026-04-26 07:58 | 51.47367 | -0.46106 | 88 ft | 4 kts | 262° |
| 2026-04-26 07:59 | 51.47365 | -0.46068 | 89 ft | 4 kts | 313° |
| 2026-04-26 07:59 | 51.47361 | -0.46061 | 88 ft | 0 kts | 326° |
| 2026-04-26 08:04 | 51.47363 | -0.46063 | 85 ft | 2 kts | 326° |
| 2026-04-26 08:04 | 51.47397 | -0.46100 | 87 ft | 7 kts | 326° |
| 2026-04-26 08:04 | 51.47443 | -0.46150 | 86 ft | 8 kts | 326° |
| 2026-04-26 08:05 | 51.47493 | -0.46206 | 86 ft | 9 kts | 319° |
| 2026-04-26 08:05 | 51.47516 | -0.46304 | 85 ft | 10 kts | 270° |
| 2026-04-26 08:05 | 51.47513 | -0.46422 | 85 ft | 11 kts | 268° |
| 2026-04-26 08:05 | 51.47510 | -0.46549 | 89 ft | 12 kts | 268° |
| 2026-04-26 08:06 | 51.47506 | -0.46685 | 88 ft | 13 kts | 264° |
| 2026-04-26 08:06 | 51.47495 | -0.46829 | 90 ft | 13 kts | 267° |
| 2026-04-26 08:06 | 51.47493 | -0.46983 | 85 ft | 14 kts | 269° |
| 2026-04-26 08:06 | 51.47492 | -0.47144 | 85 ft | 15 kts | 269° |
| 2026-04-26 08:07 | 51.47491 | -0.47314 | 85 ft | 16 kts | 269° |
| 2026-04-26 08:07 | 51.47491 | -0.47492 | 85 ft | 16 kts | 270° |
| 2026-04-26 08:07 | 51.47490 | -0.47678 | 85 ft | 17 kts | 270° |
| 2026-04-26 08:07 | 51.47490 | -0.47873 | 85 ft | 18 kts | 270° |
| 2026-04-26 08:08 | 51.47490 | -0.48074 | 85 ft | 18 kts | 270° |
| 2026-04-26 08:08 | 51.47490 | -0.48198 | 85 ft | 15 kts | 270° |
| 2026-04-26 08:08 | 51.47490 | -0.48328 | 85 ft | 7 kts | 269° |
| 2026-04-26 08:08 | 51.47486 | -0.48434 | 86 ft | 11 kts | 255° |
| 2026-04-26 08:09 | 51.47422 | -0.48477 | 85 ft | 11 kts | 180° |
| 2026-04-26 08:09 | 51.47342 | -0.48477 | 85 ft | 12 kts | 180° |
| 2026-04-26 08:09 | 51.47255 | -0.48477 | 85 ft | 13 kts | 180° |
| 2026-04-26 08:09 | 51.47161 | -0.48476 | 85 ft | 14 kts | 179° |
| 2026-04-26 08:10 | 51.47061 | -0.48475 | 85 ft | 15 kts | 179° |
| 2026-04-26 08:10 | 51.46955 | -0.48472 | 85 ft | 16 kts | 178° |
| 2026-04-26 08:10 | 51.46844 | -0.48469 | 85 ft | 16 kts | 180° |
| 2026-04-26 08:10 | 51.46732 | -0.48469 | 85 ft | 13 kts | 179° |
| 2026-04-26 08:11 | 51.46660 | -0.48499 | 89 ft | 9 kts | 235° |
| 2026-04-26 08:11 | 51.46651 | -0.48602 | 88 ft | 10 kts | 269° |
| 2026-04-26 08:11 | 51.46649 | -0.48713 | 86 ft | 10 kts | 256° |
| 2026-04-26 08:11 | 51.46603 | -0.48766 | 88 ft | 3 kts | 200° |
| 2026-04-26 08:12 | 51.46594 | -0.48770 | 87 ft | 2 kts | 199° |
| 2026-04-26 08:12 | 51.46550 | -0.48787 | 87 ft | 10 kts | 185° |
| 2026-04-26 08:12 | 51.46489 | -0.48750 | 87 ft | 9 kts | 134° |
| 2026-04-26 08:12 | 51.46478 | -0.48678 | 86 ft | 0 kts | 85° |
| 2026-04-26 08:13 | 51.46478 | -0.48676 | 86 ft | 0 kts | 85° |
| 2026-04-26 08:13 | 51.46478 | -0.48660 | 88 ft | 4 kts | 86° |
| 2026-04-26 08:13 | 51.46480 | -0.48308 | 88 ft | 67 kts | 91° |
| 2026-04-26 08:13 | 51.46483 | -0.47196 | 84 ft | 129 kts | 89° |
| 2026-04-26 08:14 | 51.46488 | -0.45495 | 155 ft | 168 kts | 90° |
| 2026-04-26 08:14 | 51.46496 | -0.43602 | 811 ft | 172 kts | 89° |
| 2026-04-26 08:14 | 51.46554 | -0.41694 | 1494 ft | 175 kts | 82° |
| 2026-04-26 08:14 | 51.47078 | -0.39929 | 2155 ft | 178 kts | 53° |
| 2026-04-26 08:15 | 51.47970 | -0.38396 | 2386 ft | 198 kts | 50° |
| 2026-04-26 08:15 | 51.48930 | -0.36627 | 2520 ft | 220 kts | 52° |
| 2026-04-26 08:15 | 51.49970 | -0.34634 | 2664 ft | 245 kts | 53° |
| 2026-04-26 08:15 | 51.51068 | -0.32516 | 3250 ft | 253 kts | 52° |
| 2026-04-26 08:16 | 51.52150 | -0.30267 | 3987 ft | 255 kts | 63° |
| 2026-04-26 08:16 | 51.52822 | -0.27613 | 4728 ft | 258 kts | 73° |
| 2026-04-26 08:16 | 51.53408 | -0.24851 | 5422 ft | 262 kts | 71° |
| 2026-04-26 08:16 | 51.54298 | -0.22254 | 5973 ft | 271 kts | 52° |
| 2026-04-26 08:17 | 51.55739 | -0.20303 | 6007 ft | 273 kts | 27° |
| 2026-04-26 08:17 | 51.57504 | -0.19263 | 6033 ft | 274 kts | 20° |
| 2026-04-26 08:17 | 51.59286 | -0.18177 | 6034 ft | 274 kts | 19° |
| 2026-04-26 08:17 | 51.61100 | -0.17238 | 6033 ft | 274 kts | 18° |
| 2026-04-26 08:18 | 51.62919 | -0.16323 | 6035 ft | 274 kts | 17° |
| 2026-04-26 08:18 | 51.64740 | -0.15436 | 6042 ft | 273 kts | 17° |
| 2026-04-26 08:18 | 51.66531 | -0.14302 | 6315 ft | 278 kts | 34° |
| 2026-04-26 08:18 | 51.67926 | -0.12188 | 7084 ft | 278 kts | 56° |
| 2026-04-26 08:19 | 51.68711 | -0.09340 | 7745 ft | 280 kts | 73° |
| 2026-04-26 08:19 | 51.69289 | -0.06320 | 8420 ft | 284 kts | 73° |
| 2026-04-26 08:19 | 51.69859 | -0.03297 | 9092 ft | 287 kts | 73° |
| 2026-04-26 08:19 | 51.70441 | -0.00200 | 9795 ft | 290 kts | 73° |
| 2026-04-26 08:20 | 51.71031 | 0.02926 | 10472 ft | 293 kts | 73° |
| 2026-04-26 08:20 | 51.71643 | 0.06162 | 10705 ft | 313 kts | 73° |
| 2026-04-26 08:20 | 51.72302 | 0.09638 | 10825 ft | 335 kts | 73° |
| 2026-04-26 08:20 | 51.73004 | 0.13340 | 10963 ft | 355 kts | 73° |
| 2026-04-26 08:21 | 51.73736 | 0.17215 | 11341 ft | 365 kts | 73° |
| 2026-04-26 08:21 | 51.74480 | 0.21156 | 11873 ft | 370 kts | 73° |
| 2026-04-26 08:21 | 51.75237 | 0.25173 | 12439 ft | 375 kts | 73° |
| 2026-04-26 08:21 | 51.75990 | 0.29186 | 13012 ft | 379 kts | 73° |
| 2026-04-26 08:22 | 51.76756 | 0.33290 | 13568 ft | 384 kts | 73° |
| 2026-04-26 08:22 | 51.77527 | 0.37440 | 14195 ft | 387 kts | 73° |
| 2026-04-26 08:22 | 51.78305 | 0.41626 | 14723 ft | 391 kts | 73° |
| 2026-04-26 08:22 | 51.79096 | 0.45868 | 15269 ft | 394 kts | 73° |
| 2026-04-26 08:23 | 51.79879 | 0.50073 | 15829 ft | 397 kts | 73° |
| 2026-04-26 08:23 | 51.80687 | 0.54428 | 16362 ft | 401 kts | 73° |
| 2026-04-26 08:23 | 51.81477 | 0.58706 | 16921 ft | 404 kts | 73° |
| 2026-04-26 08:23 | 51.82281 | 0.63085 | 17454 ft | 408 kts | 73° |
| 2026-04-26 08:24 | 51.83088 | 0.67492 | 18000 ft | 411 kts | 73° |
| 2026-04-26 08:24 | 51.83904 | 0.71958 | 18529 ft | 415 kts | 73° |
| 2026-04-26 08:24 | 51.84723 | 0.76465 | 19011 ft | 418 kts | 73° |
| 2026-04-26 08:24 | 51.85538 | 0.80959 | 19476 ft | 422 kts | 73° |
| 2026-04-26 08:25 | 51.86401 | 0.85534 | 19932 ft | 425 kts | 69° |
| 2026-04-26 08:25 | 51.87521 | 0.89968 | 20377 ft | 427 kts | 66° |
| 2026-04-26 08:25 | 51.88679 | 0.94434 | 20826 ft | 430 kts | 66° |
| 2026-04-26 08:25 | 51.89838 | 0.98927 | 21272 ft | 433 kts | 66° |
| 2026-04-26 08:26 | 51.90983 | 1.03386 | 21704 ft | 436 kts | 66° |
| 2026-04-26 08:26 | 51.92146 | 1.07939 | 22110 ft | 439 kts | 66° |
| 2026-04-26 08:26 | 51.93314 | 1.12525 | 22528 ft | 441 kts | 66° |
| 2026-04-26 08:26 | 51.94489 | 1.17150 | 22937 ft | 444 kts | 66° |
| 2026-04-26 08:27 | 51.95664 | 1.21778 | 23330 ft | 447 kts | 66° |
| 2026-04-26 08:27 | 51.96856 | 1.26477 | 23721 ft | 450 kts | 66° |
| 2026-04-26 08:27 | 51.98047 | 1.31184 | 24079 ft | 453 kts | 66° |
| 2026-04-26 08:27 | 51.99244 | 1.35915 | 24406 ft | 455 kts | 66° |
| 2026-04-26 08:28 | 52.00448 | 1.40679 | 24746 ft | 457 kts | 66° |
| 2026-04-26 08:28 | 52.01654 | 1.45460 | 25094 ft | 459 kts | 66° |
| 2026-04-26 08:28 | 52.02862 | 1.50278 | 25439 ft | 461 kts | 66° |
| 2026-04-26 08:28 | 52.04069 | 1.55108 | 25773 ft | 463 kts | 66° |
| 2026-04-26 08:29 | 52.05283 | 1.59970 | 26094 ft | 465 kts | 66° |
| 2026-04-26 08:29 | 52.06487 | 1.64802 | 26410 ft | 467 kts | 66° |
| 2026-04-26 08:29 | 52.07711 | 1.69721 | 26723 ft | 469 kts | 66° |
| 2026-04-26 08:29 | 52.08937 | 1.74659 | 27032 ft | 471 kts | 66° |
| 2026-04-26 08:30 | 52.10168 | 1.79622 | 27338 ft | 473 kts | 66° |
| 2026-04-26 08:30 | 52.11387 | 1.84551 | 27641 ft | 475 kts | 66° |
| 2026-04-26 08:30 | 52.12636 | 1.89617 | 27953 ft | 477 kts | 66° |
| 2026-04-26 08:30 | 52.13857 | 1.94583 | 28269 ft | 479 kts | 66° |
| 2026-04-26 08:31 | 52.15093 | 1.99628 | 28589 ft | 481 kts | 66° |
| 2026-04-26 08:31 | 52.16332 | 2.04701 | 28901 ft | 482 kts | 66° |
| 2026-04-26 08:31 | 52.17568 | 2.09772 | 29325 ft | 481 kts | 66° |
| 2026-04-26 08:31 | 52.18806 | 2.14865 | 29753 ft | 480 kts | 66° |
| 2026-04-26 08:32 | 52.20032 | 2.19912 | 30173 ft | 479 kts | 66° |
| 2026-04-26 08:32 | 52.21259 | 2.24960 | 30566 ft | 478 kts | 66° |
| 2026-04-26 08:32 | 52.22466 | 2.29942 | 30906 ft | 477 kts | 66° |
| 2026-04-26 08:32 | 52.23692 | 2.35015 | 31230 ft | 477 kts | 66° |
| 2026-04-26 08:33 | 52.24904 | 2.40048 | 31629 ft | 473 kts | 66° |
| 2026-04-26 08:33 | 52.26097 | 2.45016 | 32192 ft | 467 kts | 66° |
| 2026-04-26 08:33 | 52.27272 | 2.49926 | 32748 ft | 462 kts | 66° |
| 2026-04-26 08:33 | 52.28418 | 2.54733 | 33224 ft | 457 kts | 66° |
| 2026-04-26 08:34 | 52.29567 | 2.59559 | 33704 ft | 453 kts | 66° |
| 2026-04-26 08:34 | 52.30699 | 2.64398 | 33858 ft | 458 kts | 69° |
| 2026-04-26 08:34 | 52.31620 | 2.69411 | 34003 ft | 462 kts | 71° |
| 2026-04-26 08:34 | 52.32517 | 2.74471 | 34129 ft | 465 kts | 71° |
| 2026-04-26 08:35 | 52.33422 | 2.79590 | 34301 ft | 468 kts | 71° |
| 2026-04-26 08:35 | 52.34312 | 2.84657 | 34497 ft | 469 kts | 72° |
| 2026-04-26 08:35 | 52.35211 | 2.89794 | 34749 ft | 470 kts | 72° |
| 2026-04-26 08:35 | 52.36104 | 2.94929 | 34995 ft | 469 kts | 72° |
| 2026-04-26 08:36 | 52.36995 | 3.00068 | 35241 ft | 469 kts | 72° |
| 2026-04-26 08:36 | 52.37885 | 3.05216 | 35356 ft | 470 kts | 72° |
| 2026-04-26 08:36 | 52.39687 | 3.15503 | 35380 ft | 468 kts | 69° |
| 2026-04-26 08:37 | 52.42287 | 3.25247 | 35382 ft | 467 kts | 63° |
| 2026-04-26 08:37 | 52.45015 | 3.34915 | 35383 ft | 467 kts | 63° |
| 2026-04-26 08:38 | 52.47710 | 3.44530 | 35392 ft | 467 kts | 63° |
| 2026-04-26 08:38 | 52.50423 | 3.54240 | 35389 ft | 468 kts | 64° |
| 2026-04-26 08:39 | 52.53135 | 3.63957 | 35388 ft | 468 kts | 64° |
| 2026-04-26 08:39 | 52.55841 | 3.73727 | 35389 ft | 468 kts | 64° |
| 2026-04-26 08:40 | 52.58515 | 3.83440 | 35390 ft | 469 kts | 64° |
| 2026-04-26 08:40 | 52.61205 | 3.93221 | 35396 ft | 469 kts | 64° |
| 2026-04-26 08:41 | 52.63891 | 4.03041 | 35392 ft | 469 kts | 64° |
| 2026-04-26 08:41 | 52.66558 | 4.12842 | 35398 ft | 469 kts | 64° |
| 2026-04-26 08:42 | 52.69208 | 4.22612 | 35402 ft | 469 kts | 65° |
| 2026-04-26 08:42 | 52.71868 | 4.32447 | 35394 ft | 469 kts | 65° |
| 2026-04-26 08:43 | 52.74519 | 4.42284 | 35391 ft | 469 kts | 65° |
| 2026-04-26 08:43 | 52.77155 | 4.52131 | 35386 ft | 469 kts | 65° |
| 2026-04-26 08:44 | 52.79772 | 4.61957 | 35382 ft | 469 kts | 65° |
| 2026-04-26 08:44 | 52.82395 | 4.71832 | 35401 ft | 469 kts | 65° |
| 2026-04-26 08:45 | 52.85005 | 4.81716 | 35401 ft | 469 kts | 65° |
| 2026-04-26 08:45 | 52.87596 | 4.91557 | 35401 ft | 469 kts | 65° |
| 2026-04-26 08:46 | 52.90201 | 5.01505 | 35399 ft | 469 kts | 65° |
| 2026-04-26 08:46 | 52.92772 | 5.11372 | 35406 ft | 469 kts | 65° |
| 2026-04-26 08:47 | 52.95355 | 5.21317 | 35397 ft | 469 kts | 65° |
| 2026-04-26 08:47 | 52.97930 | 5.31273 | 35391 ft | 469 kts | 66° |
| 2026-04-26 08:48 | 53.00496 | 5.41247 | 35387 ft | 469 kts | 66° |
| 2026-04-26 08:48 | 53.03055 | 5.51226 | 35385 ft | 469 kts | 66° |
| 2026-04-26 08:49 | 53.05609 | 5.61215 | 35386 ft | 470 kts | 66° |
| 2026-04-26 08:49 | 53.08142 | 5.71175 | 35374 ft | 470 kts | 66° |
| 2026-04-26 08:50 | 53.10679 | 5.81200 | 35373 ft | 470 kts | 66° |
| 2026-04-26 08:50 | 53.13197 | 5.91242 | 35379 ft | 470 kts | 66° |
| 2026-04-26 08:51 | 53.16963 | 6.06290 | 35378 ft | 471 kts | 66° |
| 2026-04-26 08:52 | 53.19488 | 6.16397 | 35374 ft | 471 kts | 66° |
| 2026-04-26 08:52 | 53.21997 | 6.26506 | 35377 ft | 472 kts | 67° |
| 2026-04-26 08:53 | 53.24502 | 6.36665 | 35373 ft | 472 kts | 67° |
| 2026-04-26 08:53 | 53.26578 | 6.45141 | 35375 ft | 473 kts | 67° |
| 2026-04-26 08:54 | 53.29072 | 6.55323 | 35376 ft | 473 kts | 67° |
| 2026-04-26 08:54 | 53.31544 | 6.65448 | 35375 ft | 473 kts | 67° |
| 2026-04-26 08:55 | 53.34018 | 6.75662 | 35378 ft | 473 kts | 67° |
| 2026-04-26 08:55 | 53.36483 | 6.85901 | 35374 ft | 474 kts | 67° |
| 2026-04-26 08:56 | 53.38940 | 6.96153 | 35374 ft | 474 kts | 67° |
| 2026-04-26 08:56 | 53.41396 | 7.06426 | 35372 ft | 474 kts | 67° |
| 2026-04-26 08:57 | 53.43834 | 7.16662 | 35380 ft | 474 kts | 68° |
| 2026-04-26 08:57 | 53.46270 | 7.26961 | 35382 ft | 475 kts | 68° |
| 2026-04-26 08:58 | 53.48695 | 7.37279 | 35374 ft | 475 kts | 68° |
| 2026-04-26 08:58 | 53.51108 | 7.47577 | 35386 ft | 476 kts | 68° |
| 2026-04-26 08:59 | 53.53531 | 7.57934 | 34967 ft | 479 kts | 68° |
| 2026-04-26 08:59 | 53.54755 | 7.63195 | 33961 ft | 487 kts | 68° |
| 2026-04-26 08:59 | 53.55991 | 7.68544 | 32988 ft | 492 kts | 68° |
| 2026-04-26 08:59 | 53.57233 | 7.73931 | 32113 ft | 494 kts | 68° |
| 2026-04-26 09:00 | 53.58481 | 7.79341 | 31264 ft | 495 kts | 67° |
| 2026-04-26 09:00 | 53.59729 | 7.84753 | 30403 ft | 497 kts | 67° |
| 2026-04-26 09:00 | 53.60979 | 7.90183 | 29381 ft | 498 kts | 67° |
| 2026-04-26 09:00 | 53.62225 | 7.95624 | 28550 ft | 496 kts | 67° |
| 2026-04-26 09:01 | 53.63460 | 8.01066 | 27702 ft | 495 kts | 68° |
| 2026-04-26 09:01 | 53.64614 | 8.06505 | 26960 ft | 492 kts | 69° |
| 2026-04-26 09:01 | 53.65670 | 8.11908 | 26312 ft | 488 kts | 71° |
| 2026-04-26 09:01 | 53.66673 | 8.17357 | 25685 ft | 483 kts | 71° |
| 2026-04-26 09:02 | 53.67637 | 8.22724 | 24728 ft | 473 kts | 71° |
| 2026-04-26 09:02 | 53.68591 | 8.28010 | 23593 ft | 464 kts | 71° |
| 2026-04-26 09:02 | 53.69537 | 8.33162 | 22353 ft | 451 kts | 70° |
| 2026-04-26 09:02 | 53.70455 | 8.38073 | 22039 ft | 427 kts | 69° |
| 2026-04-26 09:03 | 53.71342 | 8.42776 | 21502 ft | 424 kts | 69° |
| 2026-04-26 09:03 | 53.72241 | 8.47512 | 20979 ft | 420 kts | 69° |
| 2026-04-26 09:03 | 53.73133 | 8.52203 | 20493 ft | 418 kts | 69° |
| 2026-04-26 09:03 | 53.74016 | 8.56868 | 20001 ft | 417 kts | 69° |
| 2026-04-26 09:04 | 53.74895 | 8.61535 | 19525 ft | 415 kts | 69° |
| 2026-04-26 09:04 | 53.75766 | 8.66189 | 18967 ft | 414 kts | 69° |
| 2026-04-26 09:04 | 53.76616 | 8.70766 | 18368 ft | 410 kts | 70° |
| 2026-04-26 09:04 | 53.77464 | 8.75355 | 17701 ft | 407 kts | 70° |
| 2026-04-26 09:05 | 53.78300 | 8.79904 | 17082 ft | 402 kts | 70° |
| 2026-04-26 09:05 | 53.79119 | 8.84384 | 16491 ft | 396 kts | 70° |
| 2026-04-26 09:05 | 53.79926 | 8.88800 | 15914 ft | 390 kts | 69° |
| 2026-04-26 09:05 | 53.80722 | 8.93149 | 15361 ft | 384 kts | 69° |
| 2026-04-26 09:06 | 53.81500 | 8.97410 | 14806 ft | 378 kts | 69° |
| 2026-04-26 09:06 | 53.82264 | 9.01636 | 14261 ft | 373 kts | 71° |
| 2026-04-26 09:06 | 53.82711 | 9.05953 | 13665 ft | 373 kts | 82° |
| 2026-04-26 09:06 | 53.82647 | 9.10308 | 13268 ft | 365 kts | 92° |
| 2026-04-26 09:07 | 53.82390 | 9.14505 | 13000 ft | 352 kts | 92° |
| 2026-04-26 09:07 | 53.82151 | 9.18554 | 12762 ft | 339 kts | 92° |
| 2026-04-26 09:07 | 53.81925 | 9.22432 | 12621 ft | 324 kts | 92° |
| 2026-04-26 09:07 | 53.81709 | 9.26204 | 12236 ft | 319 kts | 91° |
| 2026-04-26 09:08 | 53.81491 | 9.29918 | 11745 ft | 316 kts | 94° |
| 2026-04-26 09:08 | 53.80995 | 9.33543 | 11196 ft | 316 kts | 106° |
| 2026-04-26 09:08 | 53.80092 | 9.36926 | 10731 ft | 313 kts | 118° |
| 2026-04-26 09:08 | 53.78899 | 9.39981 | 10488 ft | 312 kts | 122° |
| 2026-04-26 09:09 | 53.77608 | 9.42907 | 10230 ft | 311 kts | 134° |
| 2026-04-26 09:09 | 53.75890 | 9.44971 | 10025 ft | 304 kts | 156° |
| 2026-04-26 09:09 | 53.73898 | 9.45871 | 9880 ft | 291 kts | 178° |
| 2026-04-26 09:09 | 53.71940 | 9.45598 | 9748 ft | 274 kts | 199° |
| 2026-04-26 09:10 | 53.70206 | 9.44437 | 9471 ft | 266 kts | 207° |
| 2026-04-26 09:10 | 53.68403 | 9.43770 | 9263 ft | 269 kts | 182° |
| 2026-04-26 09:10 | 53.66555 | 9.44292 | 9071 ft | 270 kts | 165° |
| 2026-04-26 09:10 | 53.64741 | 9.45130 | 8867 ft | 269 kts | 166° |
| 2026-04-26 09:11 | 53.62928 | 9.45890 | 8709 ft | 268 kts | 167° |
| 2026-04-26 09:11 | 53.61115 | 9.46613 | 8525 ft | 266 kts | 167° |
| 2026-04-26 09:11 | 53.59331 | 9.47327 | 8379 ft | 265 kts | 167° |
| 2026-04-26 09:11 | 53.57540 | 9.48050 | 8096 ft | 264 kts | 167° |
| 2026-04-26 09:12 | 53.55759 | 9.48764 | 7732 ft | 262 kts | 167° |
| 2026-04-26 09:12 | 53.53994 | 9.49464 | 7352 ft | 260 kts | 167° |
| 2026-04-26 09:12 | 53.52217 | 9.50162 | 6854 ft | 264 kts | 167° |
| 2026-04-26 09:12 | 53.50413 | 9.50860 | 6347 ft | 266 kts | 167° |
| 2026-04-26 09:13 | 53.48622 | 9.51550 | 5969 ft | 262 kts | 166° |
| 2026-04-26 09:13 | 53.46972 | 9.52761 | 5547 ft | 261 kts | 140° |
| 2026-04-26 09:13 | 53.45885 | 9.55131 | 5216 ft | 256 kts | 110° |
| 2026-04-26 09:13 | 53.45622 | 9.57936 | 4900 ft | 237 kts | 88° |
| 2026-04-26 09:14 | 53.45704 | 9.60627 | 4527 ft | 225 kts | 84° |
| 2026-04-26 09:14 | 53.45848 | 9.63191 | 4156 ft | 216 kts | 77° |
| 2026-04-26 09:14 | 53.46418 | 9.65413 | 3816 ft | 200 kts | 54° |
| 2026-04-26 09:14 | 53.47270 | 9.67147 | 3454 ft | 187 kts | 50° |
| 2026-04-26 09:15 | 53.48090 | 9.68780 | 3076 ft | 178 kts | 50° |
| 2026-04-26 09:15 | 53.48855 | 9.70308 | 3010 ft | 166 kts | 50° |
| 2026-04-26 09:15 | 53.49580 | 9.71757 | 3031 ft | 162 kts | 50° |
| 2026-04-26 09:15 | 53.50303 | 9.73205 | 3036 ft | 162 kts | 50° |
| 2026-04-26 09:16 | 53.51027 | 9.74653 | 3013 ft | 161 kts | 50° |
| 2026-04-26 09:16 | 53.51748 | 9.76098 | 3012 ft | 161 kts | 50° |
| 2026-04-26 09:16 | 53.52468 | 9.77542 | 2961 ft | 161 kts | 51° |
| 2026-04-26 09:16 | 53.53187 | 9.78983 | 2799 ft | 161 kts | 51° |
| 2026-04-26 09:17 | 53.53907 | 9.80428 | 2592 ft | 158 kts | 51° |
| 2026-04-26 09:17 | 53.54584 | 9.81785 | 2391 ft | 146 kts | 51° |
| 2026-04-26 09:17 | 53.55219 | 9.83062 | 2194 ft | 142 kts | 51° |
| 2026-04-26 09:17 | 53.55852 | 9.84333 | 2000 ft | 141 kts | 51° |
| 2026-04-26 09:18 | 53.56485 | 9.85608 | 1800 ft | 141 kts | 50° |
| 2026-04-26 09:18 | 53.57115 | 9.86874 | 1597 ft | 141 kts | 50° |
| 2026-04-26 09:18 | 53.57745 | 9.88144 | 1414 ft | 140 kts | 50° |
| 2026-04-26 09:18 | 53.58363 | 9.89386 | 1214 ft | 139 kts | 51° |
| 2026-04-26 09:19 | 53.58988 | 9.90647 | 1025 ft | 141 kts | 51° |
| 2026-04-26 09:19 | 53.59616 | 9.91913 | 822 ft | 140 kts | 51° |
| 2026-04-26 09:19 | 53.60243 | 9.93177 | 657 ft | 141 kts | 50° |
| 2026-04-26 09:19 | 53.60865 | 9.94416 | 411 ft | 134 kts | 50° |
| 2026-04-26 09:20 | 53.61439 | 9.95590 | 228 ft | 133 kts | 49° |
| 2026-04-26 09:20 | 53.62033 | 9.96798 | 90 ft | 134 kts | 50° |
| 2026-04-26 09:20 | 53.62589 | 9.97912 | 42 ft | 107 kts | 50° |
| 2026-04-26 09:20 | 53.62966 | 9.98670 | 44 ft | 71 kts | 50° |
| 2026-04-26 09:21 | 53.63268 | 9.99285 | 47 ft | 49 kts | 52° |
| 2026-04-26 09:21 | 53.63288 | 9.99569 | 44 ft | 11 kts | 97° |
| 2026-04-26 09:21 | 53.63283 | 9.99641 | 45 ft | 0 kts | 99° |
| 2026-04-26 09:21 | 53.63283 | 9.99643 | 45 ft | 1 kts | 99° |
| 2026-04-26 09:22 | 53.63277 | 9.99691 | 45 ft | 8 kts | 108° |
| 2026-04-26 09:22 | 53.63275 | 9.99780 | 43 ft | 8 kts | 57° |
| 2026-04-26 09:22 | 53.63320 | 9.99846 | 45 ft | 9 kts | 41° |
| 2026-04-26 09:22 | 53.63371 | 9.99922 | 45 ft | 10 kts | 44° |
| 2026-04-26 09:23 | 53.63417 | 10.00016 | 46 ft | 11 kts | 54° |
| 2026-04-26 09:23 | 53.63442 | 10.00118 | 46 ft | 8 kts | 78° |
| 2026-04-26 09:23 | 53.63435 | 10.00201 | 46 ft | 2 kts | 103° |
| 2026-04-26 09:23 | 53.63431 | 10.00228 | 46 ft | 3 kts | 102° |
| 2026-04-26 09:24 | 53.63426 | 10.00272 | 43 ft | 4 kts | 99° |
| 2026-04-26 09:24 | 53.63422 | 10.00310 | 46 ft | 1 kts | 101° |
| 2026-04-26 09:24 | 53.63420 | 10.00331 | 46 ft | 2 kts | 100° |
| 2026-04-26 09:24 | 53.63418 | 10.00346 | 46 ft | 0 kts | 99° |